Time;durP1;ratioP1;P1;durP2;ratioP2;P2;SDS_P1;SDS_P2;PMS_P1;PMS_P2;Temp;Humidity;BMP_temperature;BMP_pressure;BME280_temperature;BME280_humidity;BME280_pressure;Samples;Min_cycle;Max_cycle;Signal;HPM_P1;HPM_P2
2022/08/21 00:02:01;;;;;;;11.00;7.32;;;15.80;99.90;;;;;;5061014;28;20111;-67
2022/08/21 00:04:27;;;;;;;11.27;6.80;;;15.70;99.90;;;;;;5067963;28;20666;-67
2022/08/21 00:06:52;;;;;;;12.43;8.23;;;15.70;99.90;;;;;;5068079;28;20072;-67
2022/08/21 00:09:19;;;;;;;8.77;6.22;;;15.70;99.90;;;;;;5059787;28;20029;-67
2022/08/21 00:11:46;;;;;;;10.95;6.53;;;15.60;99.90;;;;;;5043587;28;20041;-66
2022/08/21 00:14:13;;;;;;;10.80;7.07;;;15.50;99.90;;;;;;5071571;28;20076;-67
2022/08/21 00:16:39;;;;;;;11.88;8.70;;;15.40;99.90;;;;;;5052140;28;20039;-66
2022/08/21 00:19:06;;;;;;;11.90;8.38;;;15.40;99.90;;;;;;5048589;28;20032;-67
2022/08/21 00:21:32;;;;;;;14.93;9.25;;;15.40;99.90;;;;;;5071292;28;20053;-66
2022/08/21 00:23:58;;;;;;;12.48;8.80;;;15.30;99.90;;;;;;5071796;28;20040;-66
2022/08/21 00:26:24;;;;;;;13.73;7.90;;;15.30;99.90;;;;;;5057843;28;20048;-67
2022/08/21 00:28:49;;;;;;;13.23;7.90;;;15.30;99.90;;;;;;5071082;28;20116;-67
2022/08/21 00:31:16;;;;;;;14.43;8.98;;;15.30;99.90;;;;;;5071072;28;20033;-67
2022/08/21 00:33:42;;;;;;;14.43;10.05;;;15.30;99.90;;;;;;5070529;28;20040;-67
2022/08/21 00:36:08;;;;;;;17.48;10.73;;;15.30;99.90;;;;;;5063895;28;20115;-67
2022/08/21 00:38:34;;;;;;;17.85;10.65;;;15.20;99.90;;;;;;5067527;28;20474;-67
2022/08/21 00:41:03;;;;;;;10.98;8.35;;;15.20;99.90;;;;;;5071004;28;20047;-67
2022/08/21 00:43:32;;;;;;;11.73;8.23;;;15.20;99.90;;;;;;5056559;28;20033;-67
2022/08/21 00:45:59;;;;;;;11.55;7.40;;;15.00;99.90;;;;;;5070416;28;20036;-67
2022/08/21 00:48:25;;;;;;;10.32;7.53;;;14.90;99.90;;;;;;5071518;28;20036;-67
2022/08/21 00:51:25;;;;;;;10.23;8.07;;;14.90;99.90;;;;;;5061514;28;20861;-66
2022/08/21 00:53:57;;;;;;;19.65;11.15;;;14.90;99.90;;;;;;5069242;28;20137;-67
2022/08/21 00:56:25;;;;;;;15.13;10.73;;;14.90;99.90;;;;;;5070783;28;20071;-67
2022/08/21 00:58:52;;;;;;;16.58;11.07;;;14.90;99.90;;;;;;5063428;28;20037;-66
2022/08/21 01:01:18;;;;;;;12.40;8.25;;;14.90;99.90;;;;;;5060310;28;20060;-67
2022/08/21 01:03:44;;;;;;;10.20;7.80;;;14.90;99.90;;;;;;5068136;28;20319;-67
2022/08/21 01:06:10;;;;;;;10.18;7.10;;;14.80;99.90;;;;;;5053171;28;20661;-67
2022/08/21 01:08:36;;;;;;;10.80;6.70;;;14.80;99.90;;;;;;5067057;28;20072;-66
2022/08/21 01:11:03;;;;;;;11.05;7.80;;;14.80;99.90;;;;;;5062262;28;20044;-66
2022/08/21 01:13:31;;;;;;;11.48;7.93;;;14.70;99.90;;;;;;5070574;28;20401;-67
2022/08/21 01:15:59;;;;;;;11.25;7.38;;;14.70;99.90;;;;;;5067315;28;20179;-67
2022/08/21 01:18:26;;;;;;;11.02;7.40;;;14.70;99.90;;;;;;5067229;28;20062;-67
2022/08/21 01:21:00;;;;;;;11.75;8.13;;;14.60;99.90;;;;;;5069893;28;20414;-67
2022/08/21 01:23:26;;;;;;;11.05;7.97;;;14.60;99.90;;;;;;5070683;28;20060;-66
2022/08/21 01:25:51;;;;;;;12.30;9.18;;;14.60;99.90;;;;;;5064817;28;20667;-67
2022/08/21 01:28:19;;;;;;;14.18;9.43;;;14.60;99.90;;;;;;5062349;28;20040;-67
2022/08/21 01:30:44;;;;;;;16.58;10.15;;;14.60;99.90;;;;;;5070157;28;20043;-67
2022/08/21 01:33:10;;;;;;;13.13;9.70;;;14.60;99.90;;;;;;5070484;28;20040;-67
2022/08/21 01:35:36;;;;;;;12.73;9.63;;;14.60;99.90;;;;;;5062565;28;20040;-65
2022/08/21 01:38:03;;;;;;;15.23;9.55;;;14.60;99.90;;;;;;5061750;28;20535;-67
2022/08/21 01:40:28;;;;;;;121.20;8.95;;;14.60;99.90;;;;;;5070248;28;20418;-66
2022/08/21 01:42:54;;;;;;;74.47;5.65;;;14.50;99.90;;;;;;5047538;28;20087;-67
2022/08/21 01:45:20;;;;;;;619.80;17.33;;;14.20;99.90;;;;;;5066572;28;20064;-67
2022/08/21 01:47:46;;;;;;;362.40;12.30;;;13.90;99.90;;;;;;5051817;28;20048;-67
2022/08/21 01:50:18;;;;;;;284.88;11.68;;;13.80;99.90;;;;;;5068854;28;20040;-67
2022/08/21 01:52:44;;;;;;;20.30;6.10;;;13.80;99.90;;;;;;5046211;28;20494;-66
2022/08/21 01:55:11;;;;;;;29.13;6.85;;;13.80;99.90;;;;;;5069778;28;20079;-67
2022/08/21 01:57:37;;;;;;;75.80;8.88;;;13.90;99.90;;;;;;5069993;28;20114;-67
2022/08/21 02:00:10;;;;;;;74.43;9.38;;;13.90;99.90;;;;;;5056287;28;20517;-67
2022/08/21 02:02:36;;;;;;;11.23;7.53;;;13.90;99.90;;;;;;5051478;28;20044;-67
2022/08/21 02:05:03;;;;;;;80.50;9.15;;;13.90;99.90;;;;;;5110899;22;20052;-66
2022/08/21 02:07:39;;;;;;;12.98;10.00;;;14.00;99.90;;;;;;5064434;28;20067;-66
2022/08/21 02:10:06;;;;;;;14.05;10.20;;;13.90;99.90;;;;;;5061567;28;20115;-66
2022/08/21 02:12:32;;;;;;;10.55;8.40;;;14.00;99.90;;;;;;5069593;28;20044;-66
2022/08/21 02:14:58;;;;;;;15.45;11.18;;;14.00;99.90;;;;;;5072702;28;20086;-66
2022/08/21 02:17:23;;;;;;;13.18;9.80;;;14.00;99.90;;;;;;5089283;28;20085;-66
2022/08/21 02:19:49;;;;;;;11.80;9.98;;;14.00;99.90;;;;;;5075957;28;20652;-66
2022/08/21 02:22:15;;;;;;;18.85;13.10;;;14.00;99.90;;;;;;5082761;28;20603;-66
2022/08/21 02:24:41;;;;;;;13.98;10.18;;;14.10;99.90;;;;;;5089938;28;20032;-66
2022/08/21 02:27:06;;;;;;;9.60;8.57;;;14.10;99.90;;;;;;5085971;28;20482;-66
2022/08/21 02:29:32;;;;;;;8.60;6.63;;;14.10;99.90;;;;;;5074966;28;20054;-66
2022/08/21 02:31:58;;;;;;;5.43;4.50;;;14.00;99.90;;;;;;5088208;28;20043;-66
2022/08/21 02:34:24;;;;;;;96.03;8.30;;;13.90;99.90;;;;;;5069817;28;20109;-66
2022/08/21 02:36:50;;;;;;;31.50;6.20;;;13.70;99.90;;;;;;5085290;28;20415;-66
2022/08/21 02:39:16;;;;;;;6.63;5.75;;;13.60;99.90;;;;;;5089399;28;20025;-66
2022/08/21 02:41:41;;;;;;;7.78;5.15;;;13.60;99.90;;;;;;5089371;28;20551;-66
2022/08/21 02:44:07;;;;;;;6.32;5.68;;;13.50;99.90;;;;;;5082030;28;20516;-66
2022/08/21 02:46:32;;;;;;;10.00;5.90;;;13.50;99.90;;;;;;5080391;28;20063;-66
2022/08/21 02:48:58;;;;;;;100.00;8.60;;;13.50;99.90;;;;;;5088893;28;20465;-66
2022/08/21 02:51:24;;;;;;;34.13;7.57;;;13.50;99.90;;;;;;5083914;28;20041;-66
2022/08/21 02:53:50;;;;;;;7.07;5.72;;;13.40;99.90;;;;;;5060845;28;20052;-66
2022/08/21 02:56:19;;;;;;;99.22;7.88;;;13.40;99.90;;;;;;5088649;28;20051;-66
2022/08/21 02:58:49;;;;;;;8.63;7.63;;;13.40;99.90;;;;;;5089166;28;20040;-66
2022/08/21 03:01:15;;;;;;;8.95;6.50;;;13.40;99.90;;;;;;5083312;28;20550;-66
2022/08/21 03:03:43;;;;;;;113.22;9.32;;;13.40;99.90;;;;;;5063903;28;20054;-66
2022/08/21 03:06:12;;;;;;;10.63;8.25;;;13.40;99.90;;;;;;5070877;28;20405;-66
2022/08/21 03:08:38;;;;;;;7.05;6.35;;;13.40;99.90;;;;;;5084476;28;20028;-66
2022/08/21 03:11:04;;;;;;;8.93;6.90;;;13.40;99.90;;;;;;5073857;28;20036;-66
2022/08/21 03:13:30;;;;;;;8.63;6.63;;;13.40;99.90;;;;;;5088571;28;20040;-66
2022/08/21 03:15:56;;;;;;;11.35;8.43;;;13.30;99.90;;;;;;5085571;28;20043;-66
2022/08/21 03:18:22;;;;;;;10.40;8.70;;;13.30;99.90;;;;;;5073205;28;20063;-65
2022/08/21 03:20:48;;;;;;;12.60;9.43;;;13.30;99.90;;;;;;5086391;28;20115;-66
2022/08/21 03:23:15;;;;;;;15.20;11.02;;;13.40;99.90;;;;;;5088754;28;20083;-66
2022/08/21 03:25:42;;;;;;;13.05;10.98;;;13.40;99.90;;;;;;5077541;28;20580;-66
2022/08/21 03:28:11;;;;;;;14.85;12.18;;;13.40;99.90;;;;;;5080528;28;20081;-66
2022/08/21 03:30:36;;;;;;;19.23;13.43;;;13.50;99.90;;;;;;5088282;28;20159;-66
2022/08/21 03:33:02;;;;;;;20.70;12.40;;;13.50;99.90;;;;;;5062392;28;20120;-66
2022/08/21 03:35:29;;;;;;;19.35;13.40;;;13.50;99.90;;;;;;5081089;28;20589;-66
2022/08/21 03:37:55;;;;;;;19.30;13.77;;;13.50;99.90;;;;;;5070306;28;20044;-66
2022/08/21 03:40:22;;;;;;;18.73;13.05;;;13.50;99.90;;;;;;5086461;28;20043;-66
2022/08/21 03:42:48;;;;;;;18.50;13.20;;;13.50;99.90;;;;;;5075487;28;20064;-66
2022/08/21 03:45:16;;;;;;;21.63;13.48;;;13.50;99.90;;;;;;5091861;28;20067;-66
2022/08/21 03:47:59;;;;;;;18.98;13.30;;;13.50;99.90;;;;;;5092648;28;20036;-66
2022/08/21 03:50:28;;;;;;;20.42;14.15;;;13.50;99.90;;;;;;5083762;28;20064;-66
2022/08/21 03:52:56;;;;;;;18.27;13.20;;;13.40;99.90;;;;;;5090864;28;20040;-66
2022/08/21 03:55:22;;;;;;;16.05;12.77;;;13.40;99.90;;;;;;5080007;28;20405;-66
2022/08/21 03:57:47;;;;;;;16.02;11.48;;;13.40;99.90;;;;;;5086578;28;20035;-66
2022/08/21 04:00:15;;;;;;;11.23;9.50;;;13.30;99.90;;;;;;5063499;28;20397;-66
2022/08/21 04:02:43;;;;;;;12.32;9.68;;;13.30;99.90;;;;;;5070352;28;20122;-66
2022/08/21 04:05:09;;;;;;;11.52;8.80;;;13.20;99.90;;;;;;5092140;28;20044;-66
2022/08/21 04:07:35;;;;;;;15.30;8.82;;;13.20;99.90;;;;;;5087154;28;20085;-66
2022/08/21 04:10:02;;;;;;;17.30;9.10;;;13.20;99.90;;;;;;5079873;28;20043;-66
2022/08/21 04:12:28;;;;;;;13.55;9.43;;;13.20;99.90;;;;;;5091899;28;20132;-66
2022/08/21 04:14:53;;;;;;;19.27;10.48;;;13.10;99.90;;;;;;5092121;28;20075;-66
2022/08/21 04:17:19;;;;;;;14.02;8.77;;;13.20;99.90;;;;;;5088163;28;20047;-66
2022/08/21 04:19:45;;;;;;;14.43;9.43;;;13.10;99.90;;;;;;5091723;28;20072;-66
2022/08/21 04:22:11;;;;;;;18.17;9.73;;;13.10;99.90;;;;;;5073433;28;20040;-66
2022/08/21 04:24:36;;;;;;;18.08;9.88;;;13.10;99.90;;;;;;5091720;28;20028;-66
2022/08/21 04:27:02;;;;;;;15.98;10.65;;;13.10;99.90;;;;;;5084380;28;20066;-66
2022/08/21 04:29:28;;;;;;;19.27;10.73;;;13.20;99.90;;;;;;5086970;28;20036;-66
2022/08/21 04:31:54;;;;;;;19.30;10.30;;;13.20;99.90;;;;;;5091668;28;20040;-66
2022/08/21 04:34:20;;;;;;;18.45;10.52;;;13.20;99.90;;;;;;5076376;28;20170;-66
2022/08/21 04:36:45;;;;;;;18.63;10.00;;;13.20;99.90;;;;;;5082585;28;20379;-66
2022/08/21 04:39:11;;;;;;;19.30;10.30;;;13.20;99.90;;;;;;5085185;28;20036;-66
2022/08/21 04:41:37;;;;;;;13.68;8.95;;;13.30;99.90;;;;;;5090444;28;20043;-66
2022/08/21 04:44:04;;;;;;;14.82;8.70;;;13.20;99.90;;;;;;5081219;28;20028;-66
2022/08/21 04:46:29;;;;;;;17.05;9.85;;;13.20;99.90;;;;;;5089833;28;20657;-66
2022/08/21 04:48:55;;;;;;;17.63;9.85;;;13.20;99.90;;;;;;5087181;28;20040;-66
2022/08/21 04:51:27;;;;;;;13.30;8.80;;;13.20;99.90;;;;;;5077015;28;20466;-66
2022/08/21 04:54:02;;;;;;;21.38;10.00;;;13.20;99.90;;;;;;5090414;28;20032;-66
2022/08/21 04:56:35;;;;;;;14.90;8.80;;;13.20;99.90;;;;;;5091520;28;20044;-66
2022/08/21 04:59:06;;;;;;;13.95;9.32;;;13.30;99.90;;;;;;5085843;28;20043;-66
2022/08/21 05:01:35;;;;;;;13.40;9.27;;;13.30;99.90;;;;;;5081637;28;20040;-66
2022/08/21 05:04:04;;;;;;;16.00;9.75;;;13.30;99.90;;;;;;5090702;28;20036;-64
2022/08/21 05:06:34;;;;;;;14.38;9.48;;;13.40;99.90;;;;;;5087475;28;20105;-64
2022/08/21 05:09:01;;;;;;;15.77;9.27;;;13.40;99.90;;;;;;5090817;28;20110;-64
2022/08/21 05:11:27;;;;;;;15.23;9.40;;;13.50;99.90;;;;;;5088399;28;20036;-63
2022/08/21 05:13:53;;;;;;;15.43;9.52;;;13.50;99.90;;;;;;5088488;28;20043;-63
2022/08/21 05:16:19;;;;;;;15.70;9.82;;;13.50;99.90;;;;;;5078870;28;20032;-64
2022/08/21 05:18:44;;;;;;;17.52;9.93;;;13.50;99.90;;;;;;5087011;28;20047;-64
2022/08/21 05:21:10;;;;;;;15.27;9.57;;;13.60;99.90;;;;;;5087745;28;20047;-63
2022/08/21 05:23:36;;;;;;;18.35;9.70;;;13.60;99.90;;;;;;5075727;28;20048;-64
2022/08/21 05:26:04;;;;;;;15.88;9.88;;;13.60;99.90;;;;;;5082687;28;20043;-64
2022/08/21 05:28:30;;;;;;;19.42;9.88;;;13.60;99.90;;;;;;5087476;28;20082;-65
2022/08/21 05:30:55;;;;;;;15.55;9.98;;;13.70;99.90;;;;;;5086439;28;20072;-64
2022/08/21 05:33:21;;;;;;;17.23;10.15;;;13.80;99.90;;;;;;5086236;28;20093;-64
2022/08/21 05:35:55;;;;;;;19.45;10.20;;;13.90;99.90;;;;;;5090311;28;20040;-64
2022/08/21 05:38:21;;;;;;;19.45;10.30;;;14.00;99.90;;;;;;5090582;28;20036;-64
2022/08/21 05:40:47;;;;;;;20.92;9.68;;;14.10;99.90;;;;;;5085638;28;20680;-64
2022/08/21 05:43:13;;;;;;;17.30;9.93;;;14.20;99.90;;;;;;5090029;28;20037;-65
2022/08/21 05:45:39;;;;;;;13.45;9.63;;;14.30;99.90;;;;;;5083361;28;20724;-64
2022/08/21 05:48:09;;;;;;;15.38;9.77;;;14.40;99.90;;;;;;5075581;28;20032;-65
2022/08/21 05:50:37;;;;;;;15.05;9.07;;;14.50;99.90;;;;;;5089968;28;20507;-64
2022/08/21 05:53:03;;;;;;;15.82;9.70;;;14.50;99.90;;;;;;5084783;28;20044;-64
2022/08/21 05:55:28;;;;;;;14.55;9.23;;;14.60;99.90;;;;;;5085410;28;20051;-64
2022/08/21 05:57:54;;;;;;;15.88;9.57;;;14.70;99.90;;;;;;5083730;28;20044;-64
2022/08/21 06:00:22;;;;;;;13.70;9.07;;;14.80;99.90;;;;;;5089678;28;20082;-63
2022/08/21 06:02:50;;;;;;;15.90;9.60;;;14.80;99.90;;;;;;5071529;28;20048;-63
2022/08/21 06:05:16;;;;;;;14.13;9.45;;;14.90;99.90;;;;;;5081168;28;20085;-63
2022/08/21 06:07:42;;;;;;;14.45;9.35;;;15.00;99.90;;;;;;5089007;28;20043;-63
2022/08/21 06:10:08;;;;;;;14.65;8.52;;;15.10;99.90;;;;;;5089898;28;20039;-62
2022/08/21 06:12:34;;;;;;;18.25;10.48;;;15.10;99.90;;;;;;5083896;28;20032;-63
2022/08/21 06:14:59;;;;;;;18.23;9.73;;;15.20;99.90;;;;;;5083684;28;20169;-63
2022/08/21 06:17:25;;;;;;;14.85;9.00;;;15.30;99.90;;;;;;5089528;28;20080;-63
2022/08/21 06:19:52;;;;;;;19.23;9.02;;;15.30;99.90;;;;;;5089828;28;20508;-63
2022/08/21 06:22:18;;;;;;;19.38;8.82;;;15.40;99.90;;;;;;5083671;28;20170;-63
2022/08/21 06:24:44;;;;;;;14.00;8.98;;;15.50;99.90;;;;;;5088120;28;20692;-64
2022/08/21 06:27:10;;;;;;;16.17;8.88;;;15.60;99.90;;;;;;5089507;28;20054;-63
2022/08/21 06:29:36;;;;;;;17.75;8.48;;;15.60;99.90;;;;;;5061605;28;20599;-64
2022/08/21 06:32:03;;;;;;;16.08;8.68;;;15.70;99.90;;;;;;5073417;28;20032;-64
2022/08/21 06:34:28;;;;;;;15.65;8.50;;;15.80;99.90;;;;;;5089160;28;20039;-64
2022/08/21 06:36:54;;;;;;;14.93;8.18;;;15.90;99.90;;;;;;5089756;28;20108;-64
2022/08/21 06:39:20;;;;;;;15.77;8.40;;;16.00;99.90;;;;;;5081910;28;20048;-64
2022/08/21 06:41:45;;;;;;;14.52;7.85;;;16.10;99.90;;;;;;5077284;28;20375;-64
2022/08/21 06:44:11;;;;;;;17.95;8.45;;;16.10;99.90;;;;;;5082029;28;20583;-64
2022/08/21 06:46:37;;;;;;;13.95;7.60;;;16.20;99.90;;;;;;5082552;28;20060;-64
2022/08/21 06:49:03;;;;;;;12.25;7.03;;;16.30;99.90;;;;;;5088260;28;20032;-65
2022/08/21 06:51:29;;;;;;;12.95;7.63;;;16.40;99.90;;;;;;5088753;28;20061;-65
2022/08/21 06:53:55;;;;;;;15.55;8.32;;;16.40;99.90;;;;;;5086540;28;20040;-65
2022/08/21 06:56:20;;;;;;;14.38;7.10;;;16.60;99.90;;;;;;5087987;28;20040;-65
2022/08/21 06:58:46;;;;;;;14.30;7.38;;;16.70;99.90;;;;;;5088008;28;20028;-65
2022/08/21 07:01:12;;;;;;;14.23;7.32;;;16.80;99.90;;;;;;5088904;28;20050;-65
2022/08/21 07:03:41;;;;;;;17.25;7.22;;;16.90;99.90;;;;;;5080001;28;20032;-64
2022/08/21 07:06:08;;;;;;;14.40;7.03;;;17.10;99.90;;;;;;5088672;28;20123;-65
2022/08/21 07:08:35;;;;;;;11.57;6.88;;;17.10;99.90;;;;;;5089004;28;20504;-64
2022/08/21 07:11:06;;;;;;;17.88;6.65;;;17.20;99.90;;;;;;5086036;28;20046;-64
2022/08/21 07:13:32;;;;;;;12.73;6.97;;;17.30;99.90;;;;;;5074410;28;20051;-64
2022/08/21 07:15:58;;;;;;;15.65;6.68;;;17.40;99.90;;;;;;5087885;28;20028;-64
2022/08/21 07:18:24;;;;;;;19.02;6.55;;;17.40;99.90;;;;;;5088755;28;20040;-62
2022/08/21 07:20:50;;;;;;;11.00;6.60;;;17.50;99.90;;;;;;5078039;28;20435;-65
2022/08/21 07:23:26;;;;;;;17.55;6.82;;;17.60;99.90;;;;;;5083037;28;20644;-65
2022/08/21 07:25:52;;;;;;;16.75;6.72;;;17.70;99.90;;;;;;5087554;28;20055;-65
2022/08/21 07:28:17;;;;;;;14.80;7.25;;;17.80;99.90;;;;;;5085848;28;20666;-65
2022/08/21 07:30:43;;;;;;;16.63;7.18;;;17.80;99.90;;;;;;5073347;28;20037;-66
2022/08/21 07:33:09;;;;;;;16.65;6.90;;;17.90;99.90;;;;;;5065410;28;20066;-65
2022/08/21 07:35:35;;;;;;;16.13;6.70;;;18.00;99.90;;;;;;5068176;28;20123;-66
2022/08/21 07:38:01;;;;;;;14.48;6.97;;;18.10;99.90;;;;;;5074900;28;20032;-65
2022/08/21 07:40:26;;;;;;;15.98;6.55;;;18.20;99.90;;;;;;5082880;28;20062;-66
2022/08/21 07:42:52;;;;;;;15.75;7.65;;;18.30;99.90;;;;;;5087955;28;20048;-64
2022/08/21 07:45:24;;;;;;;15.15;6.97;;;18.40;99.90;;;;;;5083548;28;20179;-66
2022/08/21 07:47:50;;;;;;;;;;;18.50;99.90;;;;;;5088538;28;20286;-65
2022/08/21 07:50:16;;;;;;;14.95;6.93;;;18.60;99.90;;;;;;5088266;28;20438;-65
2022/08/21 07:52:42;;;;;;;11.30;6.07;;;18.70;99.90;;;;;;5061294;28;20044;-65
2022/08/21 07:55:14;;;;;;;13.85;6.18;;;18.70;99.90;;;;;;5087761;28;20040;-65
2022/08/21 07:57:40;;;;;;;13.55;6.00;;;18.70;99.90;;;;;;5088631;28;20048;-66
2022/08/21 08:00:09;;;;;;;13.77;5.55;;;18.80;99.90;;;;;;5070139;28;20445;-65
2022/08/21 08:02:35;;;;;;;17.52;5.75;;;18.90;99.90;;;;;;5082795;28;20058;-66
2022/08/21 08:05:03;;;;;;;15.15;5.53;;;19.10;99.90;;;;;;5081059;28;20907;-65
2022/08/21 08:07:29;;;;;;;12.13;5.05;;;19.20;99.90;;;;;;5088152;28;20115;-66
2022/08/21 08:09:54;;;;;;;9.50;4.13;;;19.20;99.90;;;;;;5083928;28;20120;-65
2022/08/21 08:12:20;;;;;;;15.90;4.50;;;19.20;99.90;;;;;;5077884;28;20070;-65
2022/08/21 08:14:46;;;;;;;10.02;4.80;;;19.20;99.90;;;;;;5088145;28;20044;-65
2022/08/21 08:17:13;;;;;;;11.60;4.45;;;19.30;99.90;;;;;;5088187;28;20461;-64
2022/08/21 08:19:39;;;;;;;13.82;4.47;;;19.30;99.90;;;;;;5084146;28;20063;-66
2022/08/21 08:22:15;;;;;;;9.07;4.53;;;19.30;99.90;;;;;;5087261;28;20072;-65
2022/08/21 08:24:42;;;;;;;10.60;4.18;;;19.30;99.90;;;;;;5088267;28;20040;-65
2022/08/21 08:27:07;;;;;;;17.30;4.97;;;19.40;99.90;;;;;;5073549;28;20033;-65
2022/08/21 08:29:33;;;;;;;8.50;4.50;;;19.50;99.90;;;;;;5076863;28;20040;-65
2022/08/21 08:31:59;;;;;;;10.98;4.03;;;19.60;99.90;;;;;;5091512;28;20040;-66
2022/08/21 08:34:24;;;;;;;11.48;4.25;;;19.70;99.90;;;;;;5091374;28;20044;-66
2022/08/21 08:36:50;;;;;;;12.93;4.40;;;19.90;99.90;;;;;;5086375;28;20565;-64
2022/08/21 08:39:16;;;;;;;11.45;4.35;;;19.90;99.90;;;;;;5091633;28;20448;-65
2022/08/21 08:41:46;;;;;;;12.05;4.95;;;19.90;99.90;;;;;;5091222;28;20028;-65
2022/08/21 08:44:12;;;;;;;11.13;5.00;;;19.90;99.90;;;;;;5080239;28;20039;-65
2022/08/21 08:46:43;;;;;;;9.05;4.28;;;19.90;99.90;;;;;;5089360;28;20040;-65
2022/08/21 08:49:29;;;;;;;13.38;4.75;;;20.00;99.90;;;;;;5091255;28;20032;-65
2022/08/21 08:52:28;;;;;;;8.65;3.83;;;19.90;99.90;;;;;;5081827;28;20059;-64
2022/08/21 08:55:14;;;;;;;10.18;4.63;;;19.90;99.90;;;;;;5081736;28;20044;-66
2022/08/21 08:57:46;;;;;;;8.73;4.40;;;20.00;99.90;;;;;;5091005;28;20028;-66
2022/08/21 09:00:14;;;;;;;8.73;4.13;;;20.10;99.90;;;;;;5084183;28;20111;-66
2022/08/21 09:02:42;;;;;;;8.77;4.28;;;20.10;99.90;;;;;;5086230;28;20040;-66
2022/08/21 09:05:15;;;;;;;10.25;4.45;;;20.00;99.90;;;;;;5090798;28;20036;-66
2022/08/21 09:08:09;;;;;;;9.43;4.07;;;20.20;99.90;;;;;;5091050;28;20063;-66
2022/08/21 09:10:51;;;;;;;10.90;4.78;;;20.50;99.90;;;;;;5078803;28;20036;-66
2022/08/21 09:13:54;;;;;;;10.93;4.60;;;20.80;99.90;;;;;;5089088;28;20032;-66
2022/08/21 09:16:23;;;;;;;11.45;5.00;;;21.00;99.90;;;;;;5071828;28;20038;-66
2022/08/21 09:19:05;;;;;;;9.80;5.13;;;21.00;99.90;;;;;;5080963;28;20101;-66
2022/08/21 09:21:44;;;;;;;8.68;4.65;;;21.10;99.90;;;;;;5090572;28;20040;-65
2022/08/21 09:24:38;;;;;;;10.15;5.10;;;21.20;99.90;;;;;;5090921;28;20490;-66
2022/08/21 09:27:10;;;;;;;11.48;4.55;;;21.00;99.90;;;;;;5088142;28;20037;-66
2022/08/21 09:29:40;;;;;;;7.18;4.50;;;20.80;99.90;;;;;;5086848;28;20141;-66
2022/08/21 09:32:21;;;;;;;16.77;4.32;;;20.60;99.90;;;;;;5070516;28;20039;-66
2022/08/21 09:35:06;;;;;;;11.48;4.50;;;20.40;99.90;;;;;;5082047;28;20040;-66
2022/08/21 09:37:35;;;;;;;10.82;4.57;;;20.60;99.90;;;;;;5090761;28;20576;-65
2022/08/21 09:40:02;;;;;;;9.98;4.78;;;20.80;99.90;;;;;;5090709;28;20296;-66
2022/08/21 09:42:33;;;;;;;11.15;4.10;;;21.10;99.90;;;;;;5087425;28;20044;-66
2022/08/21 09:45:13;;;;;;;11.20;3.70;;;21.10;99.90;;;;;;5083240;28;20085;-66
2022/08/21 09:47:40;;;;;;;10.05;3.60;;;21.10;99.90;;;;;;5090030;28;20133;-66
2022/08/21 09:50:16;;;;;;;8.80;3.33;;;21.10;99.90;;;;;;5086239;28;20032;-66
2022/08/21 09:52:49;;;;;;;8.32;3.50;;;21.30;99.90;;;;;;5071700;28;20088;-66
2022/08/21 09:58:08;;;;;;;9.48;3.42;;;21.40;99.90;;;;;;5083159;28;20044;-64
2022/08/21 10:00:35;;;;;;;9.57;3.47;;;21.50;99.90;;;;;;5090035;28;20032;-66
2022/08/21 10:03:14;;;;;;;12.40;3.83;;;21.60;99.90;;;;;;5089596;28;20036;-65
2022/08/21 10:05:49;;;;;;;7.35;3.10;;;21.70;99.90;;;;;;5084024;28;20077;-65
2022/08/21 10:08:20;;;;;;;7.95;3.00;;;21.80;99.90;;;;;;5080218;28;20099;-64
2022/08/21 10:10:49;;;;;;;11.20;3.63;;;21.80;99.90;;;;;;5089109;28;20499;-65
2022/08/21 10:13:26;;;;;;;6.72;3.20;;;22.00;99.90;;;;;;5090149;28;20040;-66
2022/08/21 10:16:08;;;;;;;8.68;3.50;;;22.10;99.90;;;;;;5090083;28;20044;-67
2022/08/21 10:18:46;;;;;;;10.70;3.90;;;22.30;99.90;;;;;;5080604;28;20078;-66
2022/08/21 10:21:27;;;;;;;7.88;3.45;;;22.30;99.90;;;;;;5082451;28;20044;-66
2022/08/21 10:24:11;;;;;;;10.77;3.95;;;22.40;99.90;;;;;;5060542;28;20040;-65
2022/08/21 10:27:08;;;;;;;7.57;3.30;;;22.40;99.90;;;;;;5087847;28;20054;-65
2022/08/21 10:29:55;;;;;;;10.68;3.60;;;22.60;99.90;;;;;;5017678;28;20041;-65
2022/08/21 10:32:30;;;;;;;10.73;2.80;;;22.80;99.90;;;;;;5077619;28;20517;-65
2022/08/21 10:35:04;;;;;;;8.20;2.92;;;23.10;99.90;;;;;;5088886;28;20036;-65
2022/08/21 10:38:04;;;;;;;8.57;2.92;;;23.10;99.90;;;;;;5089324;28;20493;-65
2022/08/21 10:40:42;;;;;;;7.78;2.67;;;23.30;99.50;;;;;;5074949;28;20029;-65
2022/08/21 10:43:23;;;;;;;6.50;2.75;;;23.30;99.90;;;;;;5083142;28;20036;-65
2022/08/21 10:46:17;;;;;;;8.55;2.60;;;23.30;99.90;;;;;;5087572;28;20062;-65
2022/08/21 10:49:03;;;;;;;11.38;3.10;;;23.40;99.90;;;;;;5089262;28;20058;-66
2022/08/21 10:51:45;;;;;;;5.43;2.47;;;23.60;99.90;;;;;;5086323;28;20064;-64
2022/08/21 10:54:29;;;;;;;13.70;2.45;;;23.70;99.40;;;;;;5084173;28;20662;-65
2022/08/21 10:57:03;;;;;;;7.28;2.05;;;23.80;99.10;;;;;;5082348;28;20089;-65
2022/08/21 10:59:48;;;;;;;7.28;2.13;;;23.80;99.90;;;;;;5077129;28;20031;-65
2022/08/21 11:02:51;;;;;;;7.38;1.83;;;23.90;99.20;;;;;;5082068;28;20044;-65
2022/08/21 11:05:25;;;;;;;6.93;2.05;;;23.80;98.70;;;;;;5061602;28;20632;-65
2022/08/21 11:07:56;;;;;;;7.35;1.92;;;23.70;98.90;;;;;;5083852;28;20432;-65
2022/08/21 11:10:30;;;;;;;5.80;1.83;;;23.30;99.90;;;;;;5083884;28;20040;-65
2022/08/21 11:13:02;;;;;;;8.13;2.10;;;23.20;99.90;;;;;;5083652;28;20066;-65
2022/08/21 11:15:47;;;;;;;7.68;2.10;;;23.30;99.90;;;;;;5086535;28;20490;-65
2022/08/21 11:18:26;;;;;;;5.57;2.25;;;23.60;99.90;;;;;;5084397;28;20039;-65
2022/08/21 11:21:04;;;;;;;7.07;2.08;;;23.90;99.90;;;;;;5088539;28;20131;-64
2022/08/21 11:24:21;;;;;;;6.18;2.00;;;24.20;99.90;;;;;;5078507;28;20068;-64
2022/08/21 11:26:58;;;;;;;7.13;1.98;;;24.50;98.40;;;;;;5045907;28;20518;-64
2022/08/21 11:29:36;;;;;;;6.38;2.00;;;24.80;98.50;;;;;;5085489;28;20521;-64
2022/08/21 11:32:13;;;;;;;9.02;2.17;;;24.60;97.20;;;;;;5084145;28;20161;-64
2022/08/21 11:35:10;;;;;;;9.68;2.65;;;24.80;97.60;;;;;;5088458;28;20123;-64
2022/08/21 11:37:57;;;;;;;8.35;2.40;;;24.50;96.20;;;;;;5082982;28;20094;-65
2022/08/21 11:40:57;;;;;;;9.95;2.58;;;24.20;96.40;;;;;;5082571;28;20063;-65
2022/08/21 11:43:36;;;;;;;7.70;2.35;;;24.30;96.80;;;;;;5075167;28;20047;-66
2022/08/21 11:46:19;;;;;;;6.22;2.22;;;24.30;98.90;;;;;;5086012;28;20036;-65
2022/08/21 11:49:15;;;;;;;10.90;2.55;;;24.40;98.80;;;;;;5072734;28;20036;-66
2022/08/21 11:52:12;;;;;;;6.68;2.00;;;24.80;98.40;;;;;;5084017;28;20390;-65
2022/08/21 11:54:51;;;;;;;7.10;2.20;;;24.90;96.40;;;;;;5077022;28;20044;-65
2022/08/21 11:57:25;;;;;;;8.38;2.50;;;25.00;96.70;;;;;;5088708;28;20044;-65
2022/08/21 12:00:08;;;;;;;8.32;2.35;;;25.00;97.10;;;;;;5088454;28;20036;-64
2022/08/21 12:02:37;;;;;;;6.40;1.90;;;25.00;97.00;;;;;;5076110;28;20116;-64
2022/08/21 12:05:07;;;;;;;6.85;2.15;;;24.70;97.80;;;;;;5083751;28;20044;-65
2022/08/21 12:07:33;;;;;;;9.73;2.30;;;24.50;98.10;;;;;;5092276;28;20028;-65
2022/08/21 12:09:59;;;;;;;6.78;2.10;;;24.70;96.50;;;;;;5092410;28;20441;-65
2022/08/21 12:12:30;;;;;;;5.70;2.30;;;25.00;97.90;;;;;;5085462;28;20433;-64
2022/08/21 12:15:21;;;;;;;4.43;1.90;;;25.20;96.40;;;;;;5079118;28;20044;-64
2022/08/21 12:18:02;;;;;;;5.57;2.13;;;25.10;92.70;;;;;;5091829;28;20127;-64
2022/08/21 12:20:56;;;;;;;11.75;2.20;;;25.00;94.30;;;;;;5088276;28;20063;-64
2022/08/21 12:23:50;;;;;;;5.88;2.17;;;24.80;95.60;;;;;;5088232;28;20024;-64
2022/08/21 12:26:32;;;;;;;13.23;2.72;;;24.70;97.00;;;;;;5057340;28;20044;-64
2022/08/21 12:29:37;;;;;;;9.35;2.40;;;24.80;96.20;;;;;;5071118;28;20071;-64
2022/08/21 12:32:14;;;;;;;9.65;2.30;;;25.40;95.70;;;;;;5084443;28;20161;-64
2022/08/21 12:34:51;;;;;;;7.38;2.20;;;25.40;94.10;;;;;;5091384;28;20174;-64
2022/08/21 12:37:33;;;;;;;5.25;2.15;;;25.50;95.10;;;;;;5081342;28;20029;-65
2022/08/21 12:40:02;;;;;;;7.78;2.58;;;25.60;95.70;;;;;;5088639;28;20067;-66
2022/08/21 12:42:38;;;;;;;5.43;2.35;;;25.70;96.10;;;;;;5089336;28;20141;-64
2022/08/21 12:45:18;;;;;;;6.78;2.00;;;25.60;92.90;;;;;;5088696;28;20076;-65
2022/08/21 12:47:53;;;;;;;6.25;2.30;;;25.80;95.20;;;;;;5090815;28;20476;-64
2022/08/21 12:50:41;;;;;;;5.18;2.28;;;25.80;92.70;;;;;;5091376;28;20109;-65
2022/08/21 12:53:24;;;;;;;6.47;2.55;;;25.60;92.40;;;;;;5084360;28;20076;-64
2022/08/21 12:55:50;;;;;;;6.57;2.20;;;25.10;92.40;;;;;;5088726;28;20043;-64
2022/08/21 12:58:20;;;;;;;8.77;2.38;;;24.90;94.60;;;;;;5091118;28;20036;-65
2022/08/21 13:00:56;;;;;;;10.27;2.55;;;24.70;94.50;;;;;;5085937;28;20123;-64